createdAt,value
2018-08-04T00:00:36.040Z,101977.00
2018-08-04T00:03:42.694Z,101975.00
2018-08-04T00:06:49.166Z,101975.00
2018-08-04T00:09:55.635Z,101980.00
2018-08-04T00:13:02.751Z,101973.00
2018-08-04T00:16:09.324Z,101969.00
2018-08-04T00:19:16.050Z,101969.00
2018-08-04T00:22:22.887Z,101969.00
2018-08-04T00:25:29.436Z,101965.00
2018-08-04T00:28:36.211Z,101963.00
2018-08-04T00:31:43.127Z,101967.00
2018-08-04T00:34:49.669Z,101967.00
2018-08-04T00:37:56.324Z,101971.00
2018-08-04T00:41:03.165Z,101975.00
2018-08-04T00:44:10.046Z,101971.00
2018-08-04T00:47:16.857Z,101980.00
2018-08-04T00:50:24.135Z,101973.00
2018-08-04T00:53:30.995Z,101971.00
2018-08-04T00:56:37.543Z,101977.00
2018-08-04T00:59:44.656Z,101973.00
2018-08-04T01:02:51.303Z,101969.00
2018-08-04T01:05:57.814Z,101971.00
2018-08-04T01:09:05.921Z,101965.00
2018-08-04T01:12:13.119Z,101967.00
2018-08-04T01:15:19.935Z,101969.00
2018-08-04T01:18:26.731Z,101971.00
2018-08-04T01:21:33.846Z,101965.00
2018-08-04T01:24:41.085Z,101963.00
2018-08-04T01:27:47.887Z,101957.00
2018-08-04T01:30:54.685Z,101959.00
2018-08-04T01:34:01.293Z,101951.00
2018-08-04T01:37:07.703Z,101953.00
2018-08-04T01:40:14.476Z,101951.00
2018-08-04T01:43:21.319Z,101947.00
2018-08-04T01:46:28.115Z,101951.00
2018-08-04T01:49:34.895Z,101951.00
2018-08-04T01:52:41.753Z,101947.00
2018-08-04T01:55:48.566Z,101941.00
2018-08-04T01:58:55.622Z,101945.00
2018-08-04T02:02:02.291Z,101945.00
2018-08-04T02:05:08.839Z,101939.00
2018-08-04T02:08:15.921Z,101937.00
2018-08-04T02:11:22.750Z,101935.00
2018-08-04T02:14:29.550Z,101937.00
2018-08-04T02:17:36.045Z,101935.00
2018-08-04T02:20:42.905Z,101937.00
2018-08-04T02:23:49.765Z,101933.00
2018-08-04T02:26:57.203Z,101933.00
2018-08-04T02:30:04.361Z,101937.00
2018-08-04T02:33:11.070Z,101933.00
2018-08-04T02:36:18.015Z,101931.00
2018-08-04T02:39:24.810Z,101931.00
2018-08-04T02:42:31.703Z,101924.00
2018-08-04T02:45:38.525Z,101929.00
2018-08-04T02:48:45.145Z,101924.00
2018-08-04T02:51:52.012Z,101920.00
2018-08-04T02:54:58.946Z,101920.00
2018-08-04T02:58:05.983Z,101926.00
2018-08-04T03:01:12.793Z,101924.00
2018-08-04T03:04:19.661Z,101920.00
2018-08-04T03:07:26.920Z,101920.00
2018-08-04T03:10:33.486Z,101914.00
2018-08-04T03:13:40.363Z,101910.00
2018-08-04T03:16:47.100Z,101914.00
2018-08-04T03:19:53.896Z,101920.00
2018-08-04T03:23:00.410Z,101924.00
2018-08-04T03:26:07.396Z,101922.00
2018-08-04T03:29:14.670Z,101929.00
2018-08-04T03:32:21.355Z,101926.00
2018-08-04T03:35:28.076Z,101928.00
2018-08-04T03:38:34.859Z,101933.00
2018-08-04T03:41:42.595Z,101929.00
2018-08-04T03:44:49.051Z,101928.00
2018-08-04T03:47:56.009Z,101926.00
2018-08-04T03:51:02.467Z,101922.00
2018-08-04T03:54:09.339Z,101922.00
2018-08-04T03:57:16.471Z,101928.00
2018-08-04T04:00:23.303Z,101924.00
2018-08-04T04:03:30.184Z,101924.00
2018-08-04T04:06:36.768Z,101922.00
2018-08-04T04:09:43.183Z,101920.00
2018-08-04T04:12:50.089Z,101922.00
2018-08-04T04:15:56.568Z,101924.00
2018-08-04T04:19:03.337Z,101928.00
2018-08-04T04:22:09.920Z,101931.00
2018-08-04T04:25:16.373Z,101931.00
2018-08-04T04:28:23.201Z,101933.00
2018-08-04T04:31:29.750Z,101939.00
2018-08-04T04:34:36.270Z,101939.00
2018-08-04T04:37:43.264Z,101941.00
2018-08-04T04:40:50.068Z,101937.00
2018-08-04T04:43:56.914Z,101924.00
2018-08-04T04:47:03.390Z,101926.00
2018-08-04T04:50:10.182Z,101924.00
2018-08-04T04:53:17.011Z,101928.00
2018-08-04T04:56:23.541Z,101929.00
2018-08-04T04:59:30.247Z,101924.00
2018-08-04T05:02:36.952Z,101924.00
2018-08-04T05:05:43.658Z,101924.00
2018-08-04T05:08:50.541Z,101926.00
2018-08-04T05:11:57.405Z,101935.00
2018-08-04T05:15:04.890Z,101939.00
2018-08-04T05:18:11.028Z,101945.00
2018-08-04T05:21:17.821Z,101943.00
2018-08-04T05:24:24.379Z,101945.00
2018-08-04T05:27:31.204Z,101941.00
2018-08-04T05:30:38.002Z,101939.00
2018-08-04T05:33:44.824Z,101933.00
2018-08-04T05:36:51.368Z,101933.00
2018-08-04T05:39:58.085Z,101931.00
2018-08-04T05:43:04.830Z,101939.00
2018-08-04T05:46:11.540Z,101939.00
2018-08-04T05:49:18.108Z,101941.00
2018-08-04T05:52:24.914Z,101941.00
2018-08-04T05:55:32.720Z,101941.00
2018-08-04T05:58:39.536Z,101945.00
2018-08-04T06:01:46.403Z,101949.00
2018-08-04T06:04:53.474Z,101951.00
2018-08-04T06:08:00.543Z,101951.00
2018-08-04T06:11:07.087Z,101953.00
2018-08-04T06:14:14.903Z,101957.00
2018-08-04T06:17:21.570Z,101953.00
2018-08-04T06:20:28.362Z,101957.00
2018-08-04T06:23:35.032Z,101959.00
2018-08-04T06:26:41.499Z,101959.00
2018-08-04T06:29:48.331Z,101967.00
2018-08-04T06:32:55.191Z,101971.00
2018-08-04T06:36:01.734Z,101969.00
2018-08-04T06:39:09.254Z,101973.00
2018-08-04T06:42:16.131Z,101973.00
2018-08-04T06:45:22.921Z,101969.00
2018-08-04T06:48:29.361Z,101969.00
2018-08-04T06:51:36.586Z,101973.00
2018-08-04T06:54:43.446Z,101971.00
2018-08-04T06:57:50.199Z,101973.00
2018-08-04T07:00:56.922Z,101969.00
2018-08-04T07:04:03.606Z,101965.00
2018-08-04T07:07:10.175Z,101969.00
2018-08-04T07:10:17.540Z,101975.00
2018-08-04T07:13:24.456Z,101973.00
2018-08-04T07:16:31.635Z,101971.00
2018-08-04T07:19:38.178Z,101971.00
2018-08-04T07:22:45.335Z,101971.00
2018-08-04T07:25:51.742Z,101971.00
2018-08-04T07:28:58.848Z,101979.00
2018-08-04T07:32:05.679Z,101977.00
2018-08-04T07:35:12.492Z,101977.00
2018-08-04T07:38:19.276Z,101979.00
2018-08-04T07:41:26.084Z,101977.00
2018-08-04T07:44:32.754Z,101979.00
2018-08-04T07:47:39.498Z,101982.00
2018-08-04T07:50:46.279Z,101982.00
2018-08-04T07:53:53.152Z,101980.00
2018-08-04T07:56:59.949Z,101980.00
2018-08-04T08:00:07.901Z,101979.00
2018-08-04T08:03:15.269Z,101982.00
2018-08-04T08:06:23.809Z,101982.00
2018-08-04T08:09:31.350Z,101982.00
2018-08-04T08:12:38.281Z,101980.00
2018-08-04T08:15:46.644Z,101982.00
2018-08-04T08:18:53.454Z,101977.00
2018-08-04T08:22:00.276Z,101975.00
2018-08-04T08:25:09.313Z,101973.00
2018-08-04T08:28:17.686Z,101967.00
2018-08-04T08:31:24.568Z,101963.00
2018-08-04T08:34:31.336Z,101951.00
2018-08-04T08:37:38.139Z,101955.00
2018-08-04T08:40:44.713Z,101953.00
2018-08-04T08:43:51.287Z,101955.00
2018-08-04T08:46:58.510Z,101957.00
2018-08-04T08:50:07.347Z,101955.00
2018-08-04T08:53:14.296Z,101949.00
2018-08-04T08:56:20.763Z,101947.00
2018-08-04T08:59:27.898Z,101945.00
2018-08-04T09:02:34.764Z,101945.00
2018-08-04T09:05:41.602Z,101941.00
2018-08-04T09:08:48.426Z,101945.00
2018-08-04T09:11:55.493Z,101939.00
2018-08-04T09:15:02.049Z,101935.00
2018-08-04T09:18:09.126Z,101937.00
2018-08-04T09:21:15.950Z,101941.00
2018-08-04T09:24:22.759Z,101941.00
2018-08-04T09:27:29.564Z,101949.00
2018-08-04T09:30:36.863Z,101943.00
2018-08-04T09:33:43.764Z,101935.00
2018-08-04T09:36:50.315Z,101939.00
2018-08-04T09:39:57.403Z,101933.00
2018-08-04T09:43:04.271Z,101937.00
2018-08-04T09:46:11.084Z,101926.00
2018-08-04T09:49:17.619Z,101924.00
2018-08-04T09:52:24.853Z,101924.00
2018-08-04T09:55:31.612Z,101920.00
2018-08-04T09:58:38.976Z,101918.00
2018-08-04T10:01:45.817Z,101914.00
2018-08-04T10:04:52.914Z,101920.00
2018-08-04T10:08:01.682Z,101916.00
2018-08-04T10:11:08.517Z,101916.00
2018-08-04T10:14:17.314Z,101918.00
2018-08-04T10:17:23.253Z,101912.00
2018-08-04T10:20:30.036Z,101910.00
2018-08-04T10:23:36.854Z,101906.00
2018-08-04T10:26:43.653Z,101906.00
2018-08-04T10:29:50.460Z,101906.00
2018-08-04T10:32:57.698Z,101904.00
2018-08-04T10:36:04.267Z,101900.00
2018-08-04T10:39:11.454Z,101896.00
2018-08-04T10:42:17.924Z,101892.00
2018-08-04T10:45:28.970Z,101892.00
2018-08-04T10:48:35.543Z,101892.00
2018-08-04T10:51:42.373Z,101894.00
2018-08-04T10:54:49.222Z,101888.00
2018-08-04T10:57:56.024Z,101880.00
2018-08-04T11:01:02.607Z,101880.00
2018-08-04T11:04:09.429Z,101880.00
2018-08-04T11:07:16.221Z,101878.00
2018-08-04T11:10:23.042Z,101877.00
2018-08-04T11:13:29.709Z,101873.00
2018-08-04T11:16:37.093Z,101871.00
2018-08-04T11:19:43.671Z,101865.00
2018-08-04T11:22:51.063Z,101867.00
2018-08-04T11:25:57.907Z,101865.00
2018-08-04T11:29:04.762Z,101861.00
2018-08-04T11:32:11.951Z,101863.00
2018-08-04T11:35:18.760Z,101859.00
2018-08-04T11:38:25.591Z,101863.00
2018-08-04T11:41:32.908Z,101859.00
2018-08-04T11:44:39.704Z,101857.00
2018-08-04T11:47:46.517Z,101845.00
2018-08-04T11:50:53.695Z,101847.00
2018-08-04T11:54:00.537Z,101847.00
2018-08-04T11:57:07.208Z,101849.00
2018-08-04T12:00:14.359Z,101849.00
2018-08-04T12:03:21.462Z,101845.00
2018-08-04T12:06:27.849Z,101841.00
2018-08-04T12:09:34.458Z,101845.00
2018-08-04T12:12:41.122Z,101847.00
2018-08-04T12:15:47.536Z,101839.00
2018-08-04T12:18:54.355Z,101837.00
2018-08-04T12:22:01.258Z,101835.00
2018-08-04T12:25:08.345Z,101831.00
2018-08-04T12:28:15.207Z,101828.00
2018-08-04T12:31:21.546Z,101831.00
2018-08-04T12:34:28.718Z,101826.00
2018-08-04T12:37:35.578Z,101830.00
2018-08-04T12:40:42.658Z,101828.00
2018-08-04T12:43:49.523Z,101818.00
2018-08-04T12:46:55.735Z,101824.00
2018-08-04T12:50:02.811Z,101816.00
2018-08-04T12:53:09.644Z,101818.00
2018-08-04T12:56:15.855Z,101816.00
2018-08-04T12:59:22.241Z,101805.00
2018-08-04T13:02:29.005Z,101799.00
2018-08-04T13:05:36.070Z,101797.00
2018-08-04T13:08:43.251Z,101799.00
2018-08-04T13:11:50.529Z,101801.00
2018-08-04T13:14:57.434Z,101799.00
2018-08-04T13:18:04.150Z,101797.00
2018-08-04T13:21:11.240Z,101795.00
2018-08-04T13:24:18.053Z,101789.00
2018-08-04T13:27:25.201Z,101795.00
2018-08-04T13:30:32.387Z,101791.00
2018-08-04T13:33:39.509Z,101791.00
2018-08-04T13:36:46.578Z,101789.00
2018-08-04T13:39:54.167Z,101785.00
2018-08-04T13:43:00.208Z,101795.00
2018-08-04T13:46:06.912Z,101787.00
2018-08-04T13:49:13.854Z,101789.00
2018-08-04T13:52:20.883Z,101791.00
2018-08-04T13:55:28.101Z,101791.00
2018-08-04T13:58:35.033Z,101795.00
2018-08-04T14:01:42.272Z,101801.00
2018-08-04T14:04:49.122Z,101795.00
2018-08-04T14:07:56.343Z,101799.00
2018-08-04T14:11:03.206Z,101799.00
2018-08-04T14:14:10.537Z,101793.00
2018-08-04T14:17:17.747Z,101791.00
2018-08-04T14:20:24.563Z,101791.00
2018-08-04T14:23:31.820Z,101787.00
2018-08-04T14:26:38.575Z,101787.00
2018-08-04T14:29:45.432Z,101789.00
2018-08-04T14:32:52.406Z,101787.00
2018-08-04T14:35:58.929Z,101782.00
2018-08-04T14:39:09.950Z,101778.00
2018-08-04T14:42:16.895Z,101778.00
2018-08-04T14:45:23.710Z,101780.00
2018-08-04T14:48:30.783Z,101780.00
2018-08-04T14:51:37.713Z,101772.00
2018-08-04T14:54:44.558Z,101774.00
2018-08-04T14:57:51.744Z,101780.00
2018-08-04T15:00:58.647Z,101778.00
2018-08-04T15:04:06.058Z,101778.00
2018-08-04T15:07:12.855Z,101778.00
2018-08-04T15:10:20.046Z,101774.00
2018-08-04T15:13:26.910Z,101764.00
2018-08-04T15:16:34.027Z,101758.00
2018-08-04T15:19:40.853Z,101762.00
2018-08-04T15:22:47.741Z,101764.00
2018-08-04T15:25:54.893Z,101768.00
2018-08-04T15:29:01.933Z,101768.00
2018-08-04T15:32:08.875Z,101774.00
2018-08-04T15:35:15.706Z,101774.00
2018-08-04T15:38:22.820Z,101774.00
2018-08-04T15:41:29.633Z,101772.00
2018-08-04T15:44:36.846Z,101774.00
2018-08-04T15:47:43.427Z,101774.00
2018-08-04T15:50:50.207Z,101776.00
2018-08-04T15:53:58.108Z,101770.00
2018-08-04T15:57:04.178Z,101776.00
2018-08-04T16:00:11.327Z,101780.00
2018-08-04T16:03:19.158Z,101776.00
2018-08-04T16:06:25.158Z,101776.00
2018-08-04T16:09:32.116Z,101774.00
2018-08-04T16:12:38.865Z,101778.00
2018-08-04T16:15:45.647Z,101774.00
2018-08-04T16:18:52.439Z,101776.00
2018-08-04T16:21:59.108Z,101784.00
2018-08-04T16:25:05.846Z,101782.00
2018-08-04T16:28:12.668Z,101785.00
2018-08-04T16:31:19.051Z,101784.00
2018-08-04T16:34:25.888Z,101799.00
2018-08-04T16:37:32.787Z,101793.00
2018-08-04T16:40:39.548Z,101793.00
2018-08-04T16:43:46.809Z,101793.00
2018-08-04T16:46:53.662Z,101801.00
2018-08-04T16:50:00.236Z,101801.00
2018-08-04T16:53:07.472Z,101803.00
2018-08-04T16:56:14.568Z,101816.00
2018-08-04T16:59:21.377Z,101820.00
2018-08-04T17:02:28.307Z,101824.00
2018-08-04T17:05:35.117Z,101824.00
2018-08-04T17:08:42.283Z,101824.00
2018-08-04T17:11:49.141Z,101830.00
2018-08-04T17:14:55.948Z,101837.00
2018-08-04T17:18:02.859Z,101845.00
2018-08-04T17:21:09.941Z,101847.00
2018-08-04T17:24:16.767Z,101849.00
2018-08-04T17:27:23.491Z,101855.00
2018-08-04T17:30:30.628Z,101853.00
2018-08-04T17:33:37.619Z,101861.00
2018-08-04T17:36:44.448Z,101861.00
2018-08-04T17:39:51.267Z,101869.00
2018-08-04T17:42:57.968Z,101865.00
2018-08-04T17:46:05.075Z,101873.00
2018-08-04T17:49:11.870Z,101877.00
2018-08-04T17:52:18.701Z,101882.00
2018-08-04T17:55:25.523Z,101882.00
2018-08-04T17:58:32.334Z,101886.00
2018-08-04T18:01:39.250Z,101878.00
2018-08-04T18:04:46.019Z,101873.00
2018-08-04T18:07:52.599Z,101877.00
2018-08-04T18:10:59.479Z,101875.00
2018-08-04T18:14:06.485Z,101875.00
2018-08-04T18:17:13.354Z,101877.00
2018-08-04T18:20:19.906Z,101878.00
2018-08-04T18:23:26.402Z,101880.00
2018-08-04T18:26:33.244Z,101884.00
2018-08-04T18:29:40.104Z,101886.00
2018-08-04T18:32:47.539Z,101894.00
2018-08-04T18:35:53.818Z,101894.00
2018-08-04T18:39:00.609Z,101898.00
2018-08-04T18:42:07.490Z,101898.00
2018-08-04T18:45:14.277Z,101888.00
2018-08-04T18:48:21.070Z,101888.00
2018-08-04T18:51:30.876Z,101892.00
2018-08-04T18:54:37.664Z,101890.00
2018-08-04T18:57:46.746Z,101892.00
2018-08-04T19:02:51.711Z,101902.00
2018-08-04T19:05:59.147Z,101896.00
2018-08-04T19:09:08.474Z,101896.00
2018-08-04T19:12:17.769Z,101900.00
2018-08-04T19:15:26.297Z,101906.00
2018-08-04T19:18:33.987Z,101908.00
2018-08-04T19:21:42.531Z,101912.00
2018-08-04T19:24:50.641Z,101916.00
2018-08-04T19:27:59.833Z,101929.00
2018-08-04T19:31:08.787Z,101929.00
2018-08-04T19:34:17.112Z,101933.00
2018-08-04T19:37:25.678Z,101931.00
2018-08-04T19:40:33.218Z,101928.00
2018-08-04T19:43:40.766Z,101933.00
2018-08-04T19:46:49.096Z,101935.00
2018-08-04T19:49:57.400Z,101941.00
2018-08-04T19:53:06.170Z,101943.00
2018-08-04T19:56:13.324Z,101949.00
2018-08-04T19:59:21.568Z,101953.00
2018-08-04T20:02:30.073Z,101949.00
2018-08-04T20:05:37.162Z,101945.00
2018-08-04T20:08:43.934Z,101945.00
2018-08-04T20:11:50.818Z,101945.00
2018-08-04T20:14:57.658Z,101953.00
2018-08-04T20:18:04.470Z,101959.00
2018-08-04T20:21:11.940Z,101961.00
2018-08-04T20:24:17.885Z,101965.00
2018-08-04T20:27:24.705Z,101967.00
2018-08-04T20:30:31.249Z,101969.00
2018-08-04T20:33:38.483Z,101975.00
2018-08-04T20:36:45.274Z,101975.00
2018-08-04T20:39:52.314Z,101973.00
2018-08-04T20:42:58.595Z,101969.00
2018-08-04T20:46:05.171Z,101967.00
2018-08-04T20:49:11.654Z,101971.00
2018-08-04T20:52:18.534Z,101963.00
2018-08-04T20:55:25.594Z,101963.00
2018-08-04T20:58:32.415Z,101963.00
2018-08-04T21:02:01.666Z,101965.00
2018-08-04T21:05:08.558Z,101967.00
2018-08-04T21:08:15.379Z,101961.00
2018-08-04T21:11:22.293Z,101965.00
2018-08-04T21:14:29.670Z,101963.00
2018-08-04T21:17:36.540Z,101965.00
2018-08-04T21:20:43.365Z,101965.00
2018-08-04T21:23:50.100Z,101969.00
2018-08-04T21:26:57.033Z,101969.00
2018-08-04T21:30:03.844Z,101971.00
2018-08-04T21:33:10.417Z,101977.00
2018-08-04T21:36:16.880Z,101973.00
2018-08-04T21:39:23.708Z,101973.00
2018-08-04T21:42:30.579Z,101977.00
2018-08-04T21:45:37.399Z,101982.00
2018-08-04T21:48:44.195Z,101982.00
2018-08-04T21:51:51.639Z,101982.00
2018-08-04T21:54:58.465Z,101980.00
2018-08-04T21:58:05.334Z,101984.00
2018-08-04T22:01:15.113Z,101982.00
2018-08-04T22:04:22.011Z,101986.00
2018-08-04T22:07:48.134Z,101980.00
2018-08-04T22:10:55.141Z,101986.00
2018-08-04T22:14:02.033Z,101984.00
2018-08-04T22:17:08.986Z,101990.00
2018-08-04T22:20:18.318Z,101994.00
2018-08-04T22:23:25.666Z,102002.00
2018-08-04T22:26:32.553Z,102000.00
2018-08-04T22:29:39.345Z,102002.00
2018-08-04T22:32:46.354Z,101998.00
2018-08-04T22:35:53.030Z,101998.00
2018-08-04T22:38:59.283Z,101996.00
2018-08-04T22:42:06.100Z,101996.00
2018-08-04T22:45:44.562Z,101992.00
2018-08-04T22:48:52.433Z,101994.00
2018-08-04T22:51:59.006Z,101996.00
2018-08-04T22:55:06.114Z,101996.00
2018-08-04T22:58:12.949Z,101992.00
2018-08-04T23:01:19.410Z,101996.00
2018-08-04T23:04:26.343Z,101996.00
2018-08-04T23:07:32.878Z,102006.00
2018-08-04T23:10:39.772Z,101998.00
2018-08-04T23:13:46.679Z,102000.00
2018-08-04T23:16:53.248Z,102004.00
2018-08-04T23:20:00.049Z,102004.00
2018-08-04T23:23:07.558Z,102006.00
2018-08-04T23:26:14.219Z,102000.00
2018-08-04T23:29:21.058Z,102004.00
2018-08-04T23:32:27.848Z,102006.00
2018-08-04T23:35:34.650Z,102004.00
2018-08-04T23:38:41.431Z,102008.00
2018-08-04T23:41:48.240Z,102014.00
2018-08-04T23:44:54.721Z,102014.00
2018-08-04T23:48:01.504Z,102008.00
2018-08-04T23:51:08.796Z,102008.00
2018-08-04T23:54:15.610Z,102014.00
2018-08-04T23:57:22.487Z,102016.00
